Atlantic, North Carolina
Current Conditions -  °F | °C
As of 11:56 PM on Saturday 25 Oct 2014 (Local Time) from KNBT Reporting Station
Clear Clear  
Wind Chill: 61°   Ceiling: Unl
Heat Index: 61°   Visibility: 7mi
Dew Point: 50°   Wind: 8mph
Humidity: 67%   Direction: 230°SW
Pressure: 29.86"   Gusts: NA
Location:  34.89°N, 76.34°W
Report Text: KNBT 260356Z AUTO 23007KT 7SM CLR 16/10 A2986 RMK AO2 SLP117 T01610100 PNO
Loading
Personal Weather Stations






























Interactive Weather Map New forecast layout! Learn more

10-Day Weather Forecast

Advertisements
Track Severe Weather on mobile